sensor_id;sensor_type;location;lat;lon;timestamp;P1;durP1;ratioP1;P2;durP2;ratioP2
8564;SDS011;4320;51.498;6.556;2023-11-21T00:01:16;18.45;;;12.77;;
8564;SDS011;4320;51.498;6.556;2023-11-21T00:03:42;17.70;;;12.35;;
8564;SDS011;4320;51.498;6.556;2023-11-21T00:06:07;18.20;;;12.80;;
8564;SDS011;4320;51.498;6.556;2023-11-21T00:08:33;21.95;;;12.80;;
8564;SDS011;4320;51.498;6.556;2023-11-21T00:11:00;17.73;;;12.00;;
8564;SDS011;4320;51.498;6.556;2023-11-21T00:13:26;18.08;;;12.82;;
8564;SDS011;4320;51.498;6.556;2023-11-21T00:15:52;15.45;;;11.32;;
8564;SDS011;4320;51.498;6.556;2023-11-21T00:18:18;18.88;;;12.25;;
8564;SDS011;4320;51.498;6.556;2023-11-21T00:20:44;16.52;;;12.02;;
8564;SDS011;4320;51.498;6.556;2023-11-21T00:23:10;17.58;;;12.70;;
8564;SDS011;4320;51.498;6.556;2023-11-21T00:25:35;17.90;;;11.93;;
8564;SDS011;4320;51.498;6.556;2023-11-21T00:28:01;17.80;;;12.20;;
8564;SDS011;4320;51.498;6.556;2023-11-21T00:30:27;18.38;;;12.88;;
8564;SDS011;4320;51.498;6.556;2023-11-21T00:32:53;19.50;;;12.57;;
8564;SDS011;4320;51.498;6.556;2023-11-21T00:35:19;17.45;;;11.80;;
8564;SDS011;4320;51.498;6.556;2023-11-21T00:37:45;21.23;;;11.93;;
8564;SDS011;4320;51.498;6.556;2023-11-21T00:40:10;16.95;;;12.18;;
8564;SDS011;4320;51.498;6.556;2023-11-21T00:42:37;16.75;;;11.20;;
8564;SDS011;4320;51.498;6.556;2023-11-21T00:45:02;17.98;;;12.40;;
8564;SDS011;4320;51.498;6.556;2023-11-21T00:47:28;19.02;;;11.68;;
8564;SDS011;4320;51.498;6.556;2023-11-21T00:49:54;16.20;;;11.60;;
8564;SDS011;4320;51.498;6.556;2023-11-21T00:52:20;19.83;;;11.65;;
8564;SDS011;4320;51.498;6.556;2023-11-21T00:54:45;17.90;;;11.13;;
8564;SDS011;4320;51.498;6.556;2023-11-21T00:57:13;16.10;;;11.63;;
8564;SDS011;4320;51.498;6.556;2023-11-21T00:59:38;17.40;;;11.23;;
8564;SDS011;4320;51.498;6.556;2023-11-21T01:02:04;16.92;;;11.55;;
8564;SDS011;4320;51.498;6.556;2023-11-21T01:04:30;14.23;;;10.48;;
8564;SDS011;4320;51.498;6.556;2023-11-21T01:06:57;18.10;;;11.18;;
8564;SDS011;4320;51.498;6.556;2023-11-21T01:09:23;19.52;;;11.43;;
8564;SDS011;4320;51.498;6.556;2023-11-21T01:11:49;16.77;;;10.90;;
8564;SDS011;4320;51.498;6.556;2023-11-21T01:14:14;15.55;;;10.50;;
8564;SDS011;4320;51.498;6.556;2023-11-21T01:16:40;15.00;;;10.00;;
8564;SDS011;4320;51.498;6.556;2023-11-21T01:19:05;17.63;;;11.55;;
8564;SDS011;4320;51.498;6.556;2023-11-21T01:21:31;15.10;;;10.70;;
8564;SDS011;4320;51.498;6.556;2023-11-21T01:23:57;17.13;;;12.13;;
8564;SDS011;4320;51.498;6.556;2023-11-21T01:26:23;18.08;;;11.15;;
8564;SDS011;4320;51.498;6.556;2023-11-21T01:28:48;20.38;;;11.07;;
8564;SDS011;4320;51.498;6.556;2023-11-21T01:31:14;19.67;;;12.23;;
8564;SDS011;4320;51.498;6.556;2023-11-21T01:33:40;16.35;;;10.65;;
8564;SDS011;4320;51.498;6.556;2023-11-21T01:36:06;21.08;;;12.45;;
8564;SDS011;4320;51.498;6.556;2023-11-21T01:38:32;21.05;;;11.80;;
8564;SDS011;4320;51.498;6.556;2023-11-21T01:40:58;21.33;;;12.40;;
8564;SDS011;4320;51.498;6.556;2023-11-21T01:43:25;20.58;;;12.02;;
8564;SDS011;4320;51.498;6.556;2023-11-21T01:45:52;19.38;;;12.98;;
8564;SDS011;4320;51.498;6.556;2023-11-21T01:48:21;16.55;;;12.93;;
8564;SDS011;4320;51.498;6.556;2023-11-21T01:50:48;21.30;;;14.10;;
8564;SDS011;4320;51.498;6.556;2023-11-21T01:53:13;22.55;;;12.93;;
8564;SDS011;4320;51.498;6.556;2023-11-21T01:55:40;23.70;;;14.32;;
8564;SDS011;4320;51.498;6.556;2023-11-21T01:58:07;22.33;;;13.68;;
8564;SDS011;4320;51.498;6.556;2023-11-21T02:00:33;24.67;;;14.45;;
8564;SDS011;4320;51.498;6.556;2023-11-21T02:02:59;24.35;;;14.35;;
8564;SDS011;4320;51.498;6.556;2023-11-21T02:05:25;23.02;;;15.27;;
8564;SDS011;4320;51.498;6.556;2023-11-21T02:07:51;27.30;;;15.32;;
8564;SDS011;4320;51.498;6.556;2023-11-21T02:10:17;25.55;;;15.02;;
8564;SDS011;4320;51.498;6.556;2023-11-21T02:12:47;27.70;;;15.65;;
8564;SDS011;4320;51.498;6.556;2023-11-21T02:15:16;22.83;;;14.98;;
8564;SDS011;4320;51.498;6.556;2023-11-21T02:17:46;25.55;;;14.30;;
8564;SDS011;4320;51.498;6.556;2023-11-21T02:20:12;22.98;;;13.90;;
8564;SDS011;4320;51.498;6.556;2023-11-21T02:22:42;24.83;;;14.77;;
8564;SDS011;4320;51.498;6.556;2023-11-21T02:25:26;28.75;;;16.60;;
8564;SDS011;4320;51.498;6.556;2023-11-21T02:27:53;24.38;;;14.88;;
8564;SDS011;4320;51.498;6.556;2023-11-21T02:30:22;23.38;;;14.15;;
8564;SDS011;4320;51.498;6.556;2023-11-21T02:32:50;26.13;;;15.77;;
8564;SDS011;4320;51.498;6.556;2023-11-21T02:35:18;25.85;;;15.43;;
8564;SDS011;4320;51.498;6.556;2023-11-21T02:37:46;26.00;;;15.05;;
8564;SDS011;4320;51.498;6.556;2023-11-21T02:40:12;31.00;;;16.30;;
8564;SDS011;4320;51.498;6.556;2023-11-21T02:42:38;31.17;;;17.33;;
8564;SDS011;4320;51.498;6.556;2023-11-21T02:45:05;28.88;;;16.70;;
8564;SDS011;4320;51.498;6.556;2023-11-21T02:47:32;32.20;;;16.45;;
8564;SDS011;4320;51.498;6.556;2023-11-21T02:49:58;27.13;;;16.38;;
8564;SDS011;4320;51.498;6.556;2023-11-21T02:52:24;26.10;;;15.65;;
8564;SDS011;4320;51.498;6.556;2023-11-21T02:54:50;29.70;;;16.92;;
8564;SDS011;4320;51.498;6.556;2023-11-21T02:57:16;27.42;;;15.77;;
8564;SDS011;4320;51.498;6.556;2023-11-21T02:59:42;26.65;;;16.92;;
8564;SDS011;4320;51.498;6.556;2023-11-21T03:02:07;26.13;;;16.33;;
8564;SDS011;4320;51.498;6.556;2023-11-21T03:04:33;24.10;;;14.57;;
8564;SDS011;4320;51.498;6.556;2023-11-21T03:06:59;35.25;;;17.55;;
8564;SDS011;4320;51.498;6.556;2023-11-21T03:09:25;26.15;;;16.73;;
8564;SDS011;4320;51.498;6.556;2023-11-21T03:11:53;22.38;;;15.77;;
8564;SDS011;4320;51.498;6.556;2023-11-21T03:14:18;29.20;;;16.35;;
8564;SDS011;4320;51.498;6.556;2023-11-21T03:16:45;26.95;;;16.60;;
8564;SDS011;4320;51.498;6.556;2023-11-21T03:19:11;23.65;;;15.60;;
8564;SDS011;4320;51.498;6.556;2023-11-21T03:21:36;31.52;;;16.30;;
8564;SDS011;4320;51.498;6.556;2023-11-21T03:24:02;27.83;;;17.23;;
8564;SDS011;4320;51.498;6.556;2023-11-21T03:26:28;31.65;;;16.75;;
8564;SDS011;4320;51.498;6.556;2023-11-21T03:28:54;29.58;;;17.08;;
8564;SDS011;4320;51.498;6.556;2023-11-21T03:31:20;30.92;;;17.20;;
8564;SDS011;4320;51.498;6.556;2023-11-21T03:33:46;29.00;;;16.40;;
8564;SDS011;4320;51.498;6.556;2023-11-21T03:36:12;30.58;;;17.27;;
8564;SDS011;4320;51.498;6.556;2023-11-21T03:38:39;33.20;;;17.55;;
8564;SDS011;4320;51.498;6.556;2023-11-21T03:41:06;29.15;;;17.05;;
8564;SDS011;4320;51.498;6.556;2023-11-21T03:43:31;32.38;;;17.67;;
8564;SDS011;4320;51.498;6.556;2023-11-21T03:45:57;31.65;;;17.65;;
8564;SDS011;4320;51.498;6.556;2023-11-21T03:48:22;32.88;;;17.02;;
8564;SDS011;4320;51.498;6.556;2023-11-21T03:50:48;31.58;;;17.70;;
8564;SDS011;4320;51.498;6.556;2023-11-21T03:53:14;28.20;;;17.77;;
8564;SDS011;4320;51.498;6.556;2023-11-21T03:55:39;35.40;;;18.52;;
8564;SDS011;4320;51.498;6.556;2023-11-21T03:58:05;31.65;;;18.15;;
8564;SDS011;4320;51.498;6.556;2023-11-21T04:00:30;34.65;;;18.50;;
8564;SDS011;4320;51.498;6.556;2023-11-21T04:02:56;36.30;;;18.65;;
8564;SDS011;4320;51.498;6.556;2023-11-21T04:07:50;34.55;;;18.73;;
8564;SDS011;4320;51.498;6.556;2023-11-21T04:10:16;34.88;;;18.77;;
8564;SDS011;4320;51.498;6.556;2023-11-21T04:12:43;35.40;;;19.10;;
8564;SDS011;4320;51.498;6.556;2023-11-21T04:15:09;36.15;;;17.95;;
8564;SDS011;4320;51.498;6.556;2023-11-21T04:17:35;33.92;;;19.67;;
8564;SDS011;4320;51.498;6.556;2023-11-21T04:20:02;38.90;;;19.95;;
8564;SDS011;4320;51.498;6.556;2023-11-21T04:22:33;37.80;;;20.75;;
8564;SDS011;4320;51.498;6.556;2023-11-21T04:24:58;45.17;;;21.90;;
8564;SDS011;4320;51.498;6.556;2023-11-21T04:27:24;37.83;;;20.70;;
8564;SDS011;4320;51.498;6.556;2023-11-21T04:29:50;39.90;;;20.80;;
8564;SDS011;4320;51.498;6.556;2023-11-21T04:32:15;40.60;;;20.40;;
8564;SDS011;4320;51.498;6.556;2023-11-21T04:34:41;43.55;;;21.90;;
8564;SDS011;4320;51.498;6.556;2023-11-21T04:37:06;57.63;;;23.45;;
8564;SDS011;4320;51.498;6.556;2023-11-21T04:39:32;47.17;;;22.33;;
8564;SDS011;4320;51.498;6.556;2023-11-21T04:41:57;47.80;;;23.92;;
8564;SDS011;4320;51.498;6.556;2023-11-21T04:44:23;55.10;;;24.88;;
8564;SDS011;4320;51.498;6.556;2023-11-21T04:46:49;52.95;;;25.45;;
8564;SDS011;4320;51.498;6.556;2023-11-21T04:49:14;51.45;;;25.30;;
8564;SDS011;4320;51.498;6.556;2023-11-21T04:51:40;57.65;;;26.38;;
8564;SDS011;4320;51.498;6.556;2023-11-21T04:54:05;65.00;;;25.02;;
8564;SDS011;4320;51.498;6.556;2023-11-21T04:56:31;59.85;;;25.65;;
8564;SDS011;4320;51.498;6.556;2023-11-21T04:58:56;60.75;;;24.17;;
8564;SDS011;4320;51.498;6.556;2023-11-21T05:01:22;61.95;;;25.33;;
8564;SDS011;4320;51.498;6.556;2023-11-21T05:03:48;68.80;;;26.50;;
8564;SDS011;4320;51.498;6.556;2023-11-21T05:06:14;61.80;;;24.13;;
8564;SDS011;4320;51.498;6.556;2023-11-21T05:08:39;68.00;;;26.23;;
8564;SDS011;4320;51.498;6.556;2023-11-21T05:11:05;67.10;;;26.08;;
8564;SDS011;4320;51.498;6.556;2023-11-21T05:13:33;66.35;;;25.08;;
8564;SDS011;4320;51.498;6.556;2023-11-21T05:15:59;63.50;;;25.58;;
8564;SDS011;4320;51.498;6.556;2023-11-21T05:18:25;65.68;;;26.70;;
8564;SDS011;4320;51.498;6.556;2023-11-21T05:20:52;75.90;;;27.23;;
8564;SDS011;4320;51.498;6.556;2023-11-21T05:23:18;66.57;;;26.00;;
8564;SDS011;4320;51.498;6.556;2023-11-21T05:25:44;84.45;;;26.05;;
8564;SDS011;4320;51.498;6.556;2023-11-21T05:28:11;98.25;;;27.48;;
8564;SDS011;4320;51.498;6.556;2023-11-21T05:30:37;115.05;;;26.17;;
8564;SDS011;4320;51.498;6.556;2023-11-21T05:33:04;89.18;;;24.88;;
8564;SDS011;4320;51.498;6.556;2023-11-21T05:35:30;80.07;;;24.88;;
8564;SDS011;4320;51.498;6.556;2023-11-21T05:37:55;73.32;;;24.33;;
8564;SDS011;4320;51.498;6.556;2023-11-21T05:40:21;65.38;;;23.85;;
8564;SDS011;4320;51.498;6.556;2023-11-21T05:42:47;84.13;;;25.55;;
8564;SDS011;4320;51.498;6.556;2023-11-21T05:45:13;87.30;;;25.92;;
8564;SDS011;4320;51.498;6.556;2023-11-21T05:47:41;76.05;;;25.92;;
8564;SDS011;4320;51.498;6.556;2023-11-21T05:50:09;97.25;;;26.05;;
8564;SDS011;4320;51.498;6.556;2023-11-21T05:52:40;96.93;;;25.80;;
8564;SDS011;4320;51.498;6.556;2023-11-21T05:55:06;99.72;;;24.50;;
8564;SDS011;4320;51.498;6.556;2023-11-21T05:57:33;78.13;;;23.25;;
8564;SDS011;4320;51.498;6.556;2023-11-21T06:00:02;113.38;;;24.92;;
8564;SDS011;4320;51.498;6.556;2023-11-21T06:02:34;147.65;;;28.85;;
8564;SDS011;4320;51.498;6.556;2023-11-21T06:49:16;65.45;;;22.80;;
8564;SDS011;4320;51.498;6.556;2023-11-21T06:51:42;60.30;;;23.33;;
8564;SDS011;4320;51.498;6.556;2023-11-21T06:54:07;57.00;;;22.98;;
8564;SDS011;4320;51.498;6.556;2023-11-21T06:56:33;59.78;;;23.55;;
8564;SDS011;4320;51.498;6.556;2023-11-21T06:58:58;61.58;;;24.73;;
8564;SDS011;4320;51.498;6.556;2023-11-21T07:01:24;70.38;;;24.08;;
8564;SDS011;4320;51.498;6.556;2023-11-21T07:03:49;56.03;;;23.73;;
8564;SDS011;4320;51.498;6.556;2023-11-21T07:06:15;48.95;;;23.20;;
8564;SDS011;4320;51.498;6.556;2023-11-21T07:08:41;58.75;;;24.98;;
8564;SDS011;4320;51.498;6.556;2023-11-21T07:11:07;71.60;;;25.00;;
8564;SDS011;4320;51.498;6.556;2023-11-21T07:13:33;71.03;;;23.50;;
8564;SDS011;4320;51.498;6.556;2023-11-21T07:15:59;81.90;;;25.38;;
8564;SDS011;4320;51.498;6.556;2023-11-21T07:18:24;81.47;;;26.23;;
8564;SDS011;4320;51.498;6.556;2023-11-21T07:20:50;47.85;;;22.83;;
8564;SDS011;4320;51.498;6.556;2023-11-21T07:23:16;53.75;;;24.00;;
8564;SDS011;4320;51.498;6.556;2023-11-21T07:25:42;61.22;;;22.45;;
8564;SDS011;4320;51.498;6.556;2023-11-21T07:28:08;106.00;;;26.63;;
8564;SDS011;4320;51.498;6.556;2023-11-21T07:30:34;65.68;;;22.95;;
8564;SDS011;4320;51.498;6.556;2023-11-21T07:32:59;56.40;;;22.23;;
8564;SDS011;4320;51.498;6.556;2023-11-21T07:35:25;52.92;;;24.30;;
8564;SDS011;4320;51.498;6.556;2023-11-21T07:37:51;65.20;;;24.45;;
8564;SDS011;4320;51.498;6.556;2023-11-21T07:40:17;85.90;;;24.73;;
8564;SDS011;4320;51.498;6.556;2023-11-21T07:42:42;58.58;;;24.33;;
8564;SDS011;4320;51.498;6.556;2023-11-21T07:45:08;77.18;;;23.50;;
8564;SDS011;4320;51.498;6.556;2023-11-21T07:47:34;63.53;;;22.50;;
8564;SDS011;4320;51.498;6.556;2023-11-21T07:50:03;48.65;;;23.13;;
8564;SDS011;4320;51.498;6.556;2023-11-21T07:52:29;54.58;;;22.88;;
8564;SDS011;4320;51.498;6.556;2023-11-21T07:54:54;54.78;;;22.42;;
8564;SDS011;4320;51.498;6.556;2023-11-21T07:57:21;50.25;;;20.23;;
8564;SDS011;4320;51.498;6.556;2023-11-21T07:59:46;55.78;;;21.50;;
8564;SDS011;4320;51.498;6.556;2023-11-21T08:02:12;47.33;;;20.95;;
8564;SDS011;4320;51.498;6.556;2023-11-21T08:04:38;50.22;;;21.42;;
8564;SDS011;4320;51.498;6.556;2023-11-21T08:07:03;49.05;;;21.63;;
8564;SDS011;4320;51.498;6.556;2023-11-21T08:09:29;52.28;;;23.02;;
8564;SDS011;4320;51.498;6.556;2023-11-21T08:11:55;57.47;;;23.48;;
8564;SDS011;4320;51.498;6.556;2023-11-21T08:14:21;62.85;;;24.35;;
8564;SDS011;4320;51.498;6.556;2023-11-21T08:16:47;51.80;;;23.60;;
8564;SDS011;4320;51.498;6.556;2023-11-21T08:19:12;52.88;;;23.88;;
8564;SDS011;4320;51.498;6.556;2023-11-21T08:21:38;77.05;;;25.40;;
8564;SDS011;4320;51.498;6.556;2023-11-21T08:24:05;64.40;;;24.38;;
8564;SDS011;4320;51.498;6.556;2023-11-21T08:26:35;54.97;;;23.85;;
8564;SDS011;4320;51.498;6.556;2023-11-21T08:29:01;49.30;;;22.20;;
8564;SDS011;4320;51.498;6.556;2023-11-21T08:31:27;48.53;;;23.10;;
8564;SDS011;4320;51.498;6.556;2023-11-21T08:33:53;46.88;;;21.85;;
8564;SDS011;4320;51.498;6.556;2023-11-21T08:36:20;44.85;;;20.92;;
8564;SDS011;4320;51.498;6.556;2023-11-21T08:38:50;45.92;;;22.02;;
8564;SDS011;4320;51.498;6.556;2023-11-21T08:41:17;41.90;;;20.77;;
8564;SDS011;4320;51.498;6.556;2023-11-21T08:43:43;44.70;;;22.17;;
8564;SDS011;4320;51.498;6.556;2023-11-21T08:46:09;47.55;;;23.02;;
8564;SDS011;4320;51.498;6.556;2023-11-21T08:48:38;44.28;;;23.65;;
8564;SDS011;4320;51.498;6.556;2023-11-21T08:51:06;40.30;;;22.20;;
8564;SDS011;4320;51.498;6.556;2023-11-21T08:53:32;40.83;;;21.95;;
8564;SDS011;4320;51.498;6.556;2023-11-21T08:55:58;46.95;;;22.83;;
8564;SDS011;4320;51.498;6.556;2023-11-21T08:58:23;35.65;;;21.08;;
8564;SDS011;4320;51.498;6.556;2023-11-21T09:00:49;36.83;;;19.23;;
8564;SDS011;4320;51.498;6.556;2023-11-21T09:03:15;35.92;;;19.98;;
8564;SDS011;4320;51.498;6.556;2023-11-21T09:05:40;39.05;;;20.65;;
8564;SDS011;4320;51.498;6.556;2023-11-21T09:08:06;37.55;;;22.27;;
8564;SDS011;4320;51.498;6.556;2023-11-21T09:10:32;33.85;;;20.05;;
8564;SDS011;4320;51.498;6.556;2023-11-21T09:13:00;33.08;;;19.63;;
8564;SDS011;4320;51.498;6.556;2023-11-21T09:15:27;34.75;;;20.48;;
8564;SDS011;4320;51.498;6.556;2023-11-21T09:17:52;34.45;;;20.10;;
8564;SDS011;4320;51.498;6.556;2023-11-21T09:20:18;32.50;;;19.23;;
8564;SDS011;4320;51.498;6.556;2023-11-21T09:22:47;31.92;;;18.55;;
8564;SDS011;4320;51.498;6.556;2023-11-21T09:25:14;33.67;;;20.35;;
8564;SDS011;4320;51.498;6.556;2023-11-21T09:27:39;29.58;;;19.63;;
8564;SDS011;4320;51.498;6.556;2023-11-21T09:30:06;32.05;;;19.63;;
8564;SDS011;4320;51.498;6.556;2023-11-21T09:32:35;28.88;;;18.13;;
8564;SDS011;4320;51.498;6.556;2023-11-21T09:35:03;28.10;;;17.75;;
8564;SDS011;4320;51.498;6.556;2023-11-21T09:37:30;31.02;;;18.05;;
8564;SDS011;4320;51.498;6.556;2023-11-21T09:39:55;33.85;;;20.13;;
8564;SDS011;4320;51.498;6.556;2023-11-21T09:42:30;34.88;;;21.05;;
8564;SDS011;4320;51.498;6.556;2023-11-21T09:47:39;32.22;;;20.67;;
8564;SDS011;4320;51.498;6.556;2023-11-21T09:50:04;33.33;;;19.73;;
8564;SDS011;4320;51.498;6.556;2023-11-21T09:52:33;27.77;;;18.25;;
8564;SDS011;4320;51.498;6.556;2023-11-21T09:55:27;28.10;;;18.05;;
8564;SDS011;4320;51.498;6.556;2023-11-21T09:57:57;28.42;;;18.27;;
8564;SDS011;4320;51.498;6.556;2023-11-21T10:00:23;30.67;;;18.65;;
8564;SDS011;4320;51.498;6.556;2023-11-21T10:02:49;29.10;;;17.88;;
8564;SDS011;4320;51.498;6.556;2023-11-21T10:05:16;33.30;;;17.92;;
8564;SDS011;4320;51.498;6.556;2023-11-21T10:07:45;28.75;;;17.13;;
8564;SDS011;4320;51.498;6.556;2023-11-21T10:10:11;29.38;;;18.75;;
8564;SDS011;4320;51.498;6.556;2023-11-21T10:12:40;29.80;;;18.67;;
8564;SDS011;4320;51.498;6.556;2023-11-21T10:15:07;28.95;;;18.48;;
8564;SDS011;4320;51.498;6.556;2023-11-21T10:17:36;28.20;;;18.70;;
8564;SDS011;4320;51.498;6.556;2023-11-21T10:20:08;30.25;;;18.52;;
8564;SDS011;4320;51.498;6.556;2023-11-21T10:22:38;26.65;;;17.45;;
8564;SDS011;4320;51.498;6.556;2023-11-21T10:25:06;28.38;;;17.67;;
8564;SDS011;4320;51.498;6.556;2023-11-21T10:27:33;30.55;;;19.10;;
8564;SDS011;4320;51.498;6.556;2023-11-21T10:30:04;29.55;;;18.08;;
8564;SDS011;4320;51.498;6.556;2023-11-21T10:32:30;36.22;;;18.73;;
8564;SDS011;4320;51.498;6.556;2023-11-21T10:34:59;30.73;;;20.00;;
8564;SDS011;4320;51.498;6.556;2023-11-21T10:37:25;33.15;;;19.60;;
8564;SDS011;4320;51.498;6.556;2023-11-21T10:39:56;30.80;;;18.65;;
8564;SDS011;4320;51.498;6.556;2023-11-21T10:42:23;32.08;;;20.23;;
8564;SDS011;4320;51.498;6.556;2023-11-21T10:44:49;31.10;;;18.38;;
8564;SDS011;4320;51.498;6.556;2023-11-21T10:47:15;34.45;;;19.35;;
8564;SDS011;4320;51.498;6.556;2023-11-21T10:49:44;33.08;;;18.90;;
8564;SDS011;4320;51.498;6.556;2023-11-21T10:52:12;32.88;;;18.17;;
8564;SDS011;4320;51.498;6.556;2023-11-21T10:54:42;30.55;;;18.33;;
8564;SDS011;4320;51.498;6.556;2023-11-21T10:57:08;36.00;;;19.13;;
8564;SDS011;4320;51.498;6.556;2023-11-21T10:59:35;34.17;;;18.90;;
8564;SDS011;4320;51.498;6.556;2023-11-21T11:02:02;32.80;;;19.52;;
8564;SDS011;4320;51.498;6.556;2023-11-21T11:04:47;30.02;;;17.92;;
8564;SDS011;4320;51.498;6.556;2023-11-21T11:07:13;27.48;;;17.27;;
8564;SDS011;4320;51.498;6.556;2023-11-21T11:09:41;25.23;;;15.93;;
8564;SDS011;4320;51.498;6.556;2023-11-21T11:12:07;29.08;;;17.00;;
8564;SDS011;4320;51.498;6.556;2023-11-21T11:14:34;27.00;;;14.85;;
8564;SDS011;4320;51.498;6.556;2023-11-21T11:17:01;29.50;;;15.80;;
8564;SDS011;4320;51.498;6.556;2023-11-21T11:19:28;41.50;;;16.90;;
8564;SDS011;4320;51.498;6.556;2023-11-21T11:33:17;28.90;;;16.40;;
8564;SDS011;4320;51.498;6.556;2023-11-21T11:35:52;38.28;;;17.17;;
8564;SDS011;4320;51.498;6.556;2023-11-21T11:38:22;28.85;;;17.63;;
8564;SDS011;4320;51.498;6.556;2023-11-21T11:40:48;27.80;;;17.45;;
8564;SDS011;4320;51.498;6.556;2023-11-21T11:43:24;31.30;;;19.17;;
8564;SDS011;4320;51.498;6.556;2023-11-21T11:45:51;31.45;;;18.02;;
8564;SDS011;4320;51.498;6.556;2023-11-21T11:48:18;32.83;;;19.35;;
8564;SDS011;4320;51.498;6.556;2023-11-21T11:53:46;35.97;;;19.80;;
8564;SDS011;4320;51.498;6.556;2023-11-21T11:56:29;39.47;;;21.08;;
8564;SDS011;4320;51.498;6.556;2023-11-21T11:58:59;34.80;;;19.17;;
8564;SDS011;4320;51.498;6.556;2023-11-21T12:01:27;39.20;;;20.65;;
8564;SDS011;4320;51.498;6.556;2023-11-21T12:06:59;45.33;;;21.25;;
8564;SDS011;4320;51.498;6.556;2023-11-21T12:09:27;49.08;;;23.15;;
8564;SDS011;4320;51.498;6.556;2023-11-21T12:11:55;43.88;;;22.60;;
8564;SDS011;4320;51.498;6.556;2023-11-21T12:14:25;52.70;;;26.23;;
8564;SDS011;4320;51.498;6.556;2023-11-21T12:16:50;54.55;;;25.05;;
8564;SDS011;4320;51.498;6.556;2023-11-21T12:19:17;49.70;;;24.58;;
8564;SDS011;4320;51.498;6.556;2023-11-21T12:21:43;62.83;;;26.30;;
8564;SDS011;4320;51.498;6.556;2023-11-21T12:24:09;55.30;;;25.27;;
8564;SDS011;4320;51.498;6.556;2023-11-21T12:26:35;53.45;;;25.50;;
8564;SDS011;4320;51.498;6.556;2023-11-21T12:29:03;58.80;;;25.75;;
8564;SDS011;4320;51.498;6.556;2023-11-21T12:31:32;49.03;;;22.90;;
8564;SDS011;4320;51.498;6.556;2023-11-21T12:33:59;45.80;;;23.17;;
8564;SDS011;4320;51.498;6.556;2023-11-21T12:36:25;39.35;;;22.25;;
8564;SDS011;4320;51.498;6.556;2023-11-21T12:38:51;50.33;;;21.70;;
8564;SDS011;4320;51.498;6.556;2023-11-21T12:41:17;51.60;;;21.63;;
8564;SDS011;4320;51.498;6.556;2023-11-21T12:43:42;32.75;;;18.23;;
8564;SDS011;4320;51.498;6.556;2023-11-21T12:46:09;35.42;;;18.20;;
8564;SDS011;4320;51.498;6.556;2023-11-21T12:48:39;36.10;;;19.00;;
8564;SDS011;4320;51.498;6.556;2023-11-21T12:51:09;36.83;;;20.42;;
8564;SDS011;4320;51.498;6.556;2023-11-21T12:53:36;35.80;;;18.67;;
8564;SDS011;4320;51.498;6.556;2023-11-21T12:56:06;30.10;;;17.20;;
8564;SDS011;4320;51.498;6.556;2023-11-21T12:58:34;33.35;;;17.48;;
8564;SDS011;4320;51.498;6.556;2023-11-21T13:01:00;32.00;;;18.27;;
8564;SDS011;4320;51.498;6.556;2023-11-21T13:03:29;34.88;;;17.17;;
8564;SDS011;4320;51.498;6.556;2023-11-21T13:05:55;33.22;;;17.00;;
8564;SDS011;4320;51.498;6.556;2023-11-21T13:08:22;31.95;;;17.88;;
8564;SDS011;4320;51.498;6.556;2023-11-21T13:10:49;33.55;;;17.85;;
8564;SDS011;4320;51.498;6.556;2023-11-21T13:13:20;35.42;;;17.88;;
8564;SDS011;4320;51.498;6.556;2023-11-21T13:15:52;33.55;;;18.52;;
8564;SDS011;4320;51.498;6.556;2023-11-21T13:18:25;31.90;;;17.83;;
8564;SDS011;4320;51.498;6.556;2023-11-21T13:20:56;37.45;;;19.42;;
8564;SDS011;4320;51.498;6.556;2023-11-21T13:23:23;40.75;;;19.85;;
8564;SDS011;4320;51.498;6.556;2023-11-21T13:25:50;37.85;;;19.13;;
8564;SDS011;4320;51.498;6.556;2023-11-21T13:28:16;32.88;;;17.95;;
8564;SDS011;4320;51.498;6.556;2023-11-21T13:30:46;33.97;;;20.30;;
8564;SDS011;4320;51.498;6.556;2023-11-21T13:33:13;36.58;;;19.42;;
8564;SDS011;4320;51.498;6.556;2023-11-21T13:35:43;37.25;;;19.83;;
8564;SDS011;4320;51.498;6.556;2023-11-21T13:38:18;36.78;;;19.98;;
8564;SDS011;4320;51.498;6.556;2023-11-21T13:40:48;40.28;;;20.67;;
8564;SDS011;4320;51.498;6.556;2023-11-21T13:43:22;36.55;;;19.25;;
8564;SDS011;4320;51.498;6.556;2023-11-21T13:45:50;36.78;;;19.45;;
8564;SDS011;4320;51.498;6.556;2023-11-21T13:48:29;41.67;;;20.80;;
8564;SDS011;4320;51.498;6.556;2023-11-21T13:51:05;36.47;;;19.98;;
8564;SDS011;4320;51.498;6.556;2023-11-21T13:53:45;39.97;;;20.25;;
8564;SDS011;4320;51.498;6.556;2023-11-21T13:56:20;36.88;;;18.70;;
8564;SDS011;4320;51.498;6.556;2023-11-21T13:58:49;35.70;;;18.10;;
8564;SDS011;4320;51.498;6.556;2023-11-21T14:01:21;36.58;;;17.92;;
8564;SDS011;4320;51.498;6.556;2023-11-21T14:03:54;28.95;;;15.27;;
8564;SDS011;4320;51.498;6.556;2023-11-21T14:06:42;30.13;;;14.68;;
8564;SDS011;4320;51.498;6.556;2023-11-21T14:09:15;32.35;;;15.90;;
8564;SDS011;4320;51.498;6.556;2023-11-21T14:11:53;31.70;;;15.20;;
8564;SDS011;4320;51.498;6.556;2023-11-21T14:14:21;21.55;;;13.80;;
8564;SDS011;4320;51.498;6.556;2023-11-21T14:16:51;23.95;;;13.55;;
8564;SDS011;4320;51.498;6.556;2023-11-21T14:19:17;25.02;;;13.85;;
8564;SDS011;4320;51.498;6.556;2023-11-21T14:21:47;22.95;;;13.73;;
8564;SDS011;4320;51.498;6.556;2023-11-21T14:24:15;21.58;;;12.85;;
8564;SDS011;4320;51.498;6.556;2023-11-21T14:26:43;24.33;;;13.43;;
8564;SDS011;4320;51.498;6.556;2023-11-21T14:29:13;21.15;;;13.27;;
8564;SDS011;4320;51.498;6.556;2023-11-21T14:31:41;21.20;;;12.60;;
8564;SDS011;4320;51.498;6.556;2023-11-21T14:34:08;23.92;;;12.60;;
8564;SDS011;4320;51.498;6.556;2023-11-21T14:36:35;23.67;;;13.80;;
8564;SDS011;4320;51.498;6.556;2023-11-21T14:39:08;17.98;;;12.43;;
8564;SDS011;4320;51.498;6.556;2023-11-21T14:41:45;21.42;;;13.20;;
8564;SDS011;4320;51.498;6.556;2023-11-21T14:44:11;18.67;;;12.38;;
8564;SDS011;4320;51.498;6.556;2023-11-21T14:46:37;18.40;;;13.20;;
8564;SDS011;4320;51.498;6.556;2023-11-21T14:49:04;19.55;;;12.35;;
8564;SDS011;4320;51.498;6.556;2023-11-21T14:51:49;21.33;;;12.70;;
8564;SDS011;4320;51.498;6.556;2023-11-21T14:54:26;21.60;;;12.75;;
8564;SDS011;4320;51.498;6.556;2023-11-21T14:57:05;18.48;;;12.05;;
8564;SDS011;4320;51.498;6.556;2023-11-21T14:59:37;21.00;;;12.35;;
8564;SDS011;4320;51.498;6.556;2023-11-21T15:02:08;18.42;;;11.30;;
8564;SDS011;4320;51.498;6.556;2023-11-21T15:04:43;17.80;;;11.20;;
8564;SDS011;4320;51.498;6.556;2023-11-21T15:07:08;18.20;;;11.60;;
8564;SDS011;4320;51.498;6.556;2023-11-21T15:09:36;17.02;;;11.15;;
8564;SDS011;4320;51.498;6.556;2023-11-21T15:12:10;16.35;;;10.30;;
8564;SDS011;4320;51.498;6.556;2023-11-21T15:14:46;15.45;;;10.57;;
8564;SDS011;4320;51.498;6.556;2023-11-21T15:17:15;15.32;;;9.90;;
8564;SDS011;4320;51.498;6.556;2023-11-21T15:19:55;18.33;;;10.32;;
8564;SDS011;4320;51.498;6.556;2023-11-21T15:22:21;15.13;;;9.27;;
8564;SDS011;4320;51.498;6.556;2023-11-21T15:24:47;14.43;;;9.45;;
8564;SDS011;4320;51.498;6.556;2023-11-21T15:27:14;15.43;;;9.68;;
8564;SDS011;4320;51.498;6.556;2023-11-21T15:29:41;17.20;;;11.73;;
8564;SDS011;4320;51.498;6.556;2023-11-21T15:32:08;12.50;;;8.95;;
8564;SDS011;4320;51.498;6.556;2023-11-21T15:34:34;14.65;;;9.05;;
8564;SDS011;4320;51.498;6.556;2023-11-21T15:37:00;12.50;;;8.05;;
8564;SDS011;4320;51.498;6.556;2023-11-21T15:39:27;13.68;;;8.50;;
8564;SDS011;4320;51.498;6.556;2023-11-21T15:41:55;13.13;;;8.25;;
8564;SDS011;4320;51.498;6.556;2023-11-21T15:44:21;11.90;;;7.60;;
8564;SDS011;4320;51.498;6.556;2023-11-21T15:46:48;12.60;;;7.90;;
8564;SDS011;4320;51.498;6.556;2023-11-21T15:49:14;11.75;;;7.88;;
8564;SDS011;4320;51.498;6.556;2023-11-21T15:51:43;11.32;;;8.02;;
8564;SDS011;4320;51.498;6.556;2023-11-21T15:54:21;12.20;;;8.00;;
8564;SDS011;4320;51.498;6.556;2023-11-21T15:56:47;9.55;;;7.47;;